sensor_id;sensor_type;location;lat;lon;timestamp;P1;durP1;ratioP1;P2;durP2;ratioP2
24567;SDS011;12731;52.182;8.716;2022-07-15T00:02:23;5.13;;;2.03;;
24567;SDS011;12731;52.182;8.716;2022-07-15T00:04:50;7.68;;;2.10;;
24567;SDS011;12731;52.182;8.716;2022-07-15T00:07:17;3.20;;;1.70;;
24567;SDS011;12731;52.182;8.716;2022-07-15T00:09:43;4.70;;;1.90;;
24567;SDS011;12731;52.182;8.716;2022-07-15T00:12:28;5.63;;;2.20;;
24567;SDS011;12731;52.182;8.716;2022-07-15T00:14:54;5.30;;;2.03;;
24567;SDS011;12731;52.182;8.716;2022-07-15T00:17:21;4.93;;;2.03;;
24567;SDS011;12731;52.182;8.716;2022-07-15T00:19:49;4.53;;;2.05;;
24567;SDS011;12731;52.182;8.716;2022-07-15T00:22:15;4.70;;;2.05;;
24567;SDS011;12731;52.182;8.716;2022-07-15T00:24:42;6.07;;;2.65;;
24567;SDS011;12731;52.182;8.716;2022-07-15T00:27:08;2.97;;;2.17;;
24567;SDS011;12731;52.182;8.716;2022-07-15T00:29:35;4.60;;;2.10;;
24567;SDS011;12731;52.182;8.716;2022-07-15T00:32:01;4.75;;;2.33;;
24567;SDS011;12731;52.182;8.716;2022-07-15T00:34:28;5.32;;;2.20;;
24567;SDS011;12731;52.182;8.716;2022-07-15T00:36:54;4.38;;;2.03;;
24567;SDS011;12731;52.182;8.716;2022-07-15T00:39:21;2.97;;;1.70;;
24567;SDS011;12731;52.182;8.716;2022-07-15T00:41:47;6.68;;;2.30;;
24567;SDS011;12731;52.182;8.716;2022-07-15T00:44:14;5.68;;;2.25;;
24567;SDS011;12731;52.182;8.716;2022-07-15T00:46:40;6.22;;;2.20;;
24567;SDS011;12731;52.182;8.716;2022-07-15T00:49:08;4.90;;;2.30;;
24567;SDS011;12731;52.182;8.716;2022-07-15T00:51:40;7.57;;;2.47;;
24567;SDS011;12731;52.182;8.716;2022-07-15T00:54:12;7.68;;;2.28;;
24567;SDS011;12731;52.182;8.716;2022-07-15T00:56:49;6.10;;;2.60;;
24567;SDS011;12731;52.182;8.716;2022-07-15T00:59:21;8.85;;;3.13;;
24567;SDS011;12731;52.182;8.716;2022-07-15T01:01:49;5.75;;;2.22;;
24567;SDS011;12731;52.182;8.716;2022-07-15T01:04:20;3.45;;;2.33;;
24567;SDS011;12731;52.182;8.716;2022-07-15T01:06:47;7.30;;;2.75;;
24567;SDS011;12731;52.182;8.716;2022-07-15T01:09:14;7.90;;;2.70;;
24567;SDS011;12731;52.182;8.716;2022-07-15T01:11:40;7.45;;;2.42;;
24567;SDS011;12731;52.182;8.716;2022-07-15T01:14:07;7.75;;;2.60;;
24567;SDS011;12731;52.182;8.716;2022-07-15T01:16:34;4.28;;;2.75;;
24567;SDS011;12731;52.182;8.716;2022-07-15T01:19:00;4.82;;;2.65;;
24567;SDS011;12731;52.182;8.716;2022-07-15T01:21:27;7.22;;;2.42;;
24567;SDS011;12731;52.182;8.716;2022-07-15T01:23:53;6.82;;;2.38;;
24567;SDS011;12731;52.182;8.716;2022-07-15T01:26:20;6.78;;;2.30;;
24567;SDS011;12731;52.182;8.716;2022-07-15T01:28:47;4.72;;;2.58;;
24567;SDS011;12731;52.182;8.716;2022-07-15T01:31:14;8.27;;;3.03;;
24567;SDS011;12731;52.182;8.716;2022-07-15T01:33:41;7.43;;;2.50;;
24567;SDS011;12731;52.182;8.716;2022-07-15T01:36:08;4.63;;;2.50;;
24567;SDS011;12731;52.182;8.716;2022-07-15T01:38:34;6.60;;;2.75;;
24567;SDS011;12731;52.182;8.716;2022-07-15T01:41:13;9.40;;;2.92;;
24567;SDS011;12731;52.182;8.716;2022-07-15T01:43:40;6.43;;;2.72;;
24567;SDS011;12731;52.182;8.716;2022-07-15T01:46:07;8.77;;;2.85;;
24567;SDS011;12731;52.182;8.716;2022-07-15T01:48:33;6.90;;;2.35;;
24567;SDS011;12731;52.182;8.716;2022-07-15T01:51:18;7.78;;;2.90;;
24567;SDS011;12731;52.182;8.716;2022-07-15T01:53:44;8.43;;;3.10;;
24567;SDS011;12731;52.182;8.716;2022-07-15T01:56:11;11.60;;;2.85;;
24567;SDS011;12731;52.182;8.716;2022-07-15T01:58:37;4.55;;;2.40;;
24567;SDS011;12731;52.182;8.716;2022-07-15T02:01:04;3.65;;;2.58;;
24567;SDS011;12731;52.182;8.716;2022-07-15T02:03:31;6.75;;;2.58;;
24567;SDS011;12731;52.182;8.716;2022-07-15T02:05:58;5.43;;;2.40;;
24567;SDS011;12731;52.182;8.716;2022-07-15T02:08:25;9.77;;;2.67;;
24567;SDS011;12731;52.182;8.716;2022-07-15T02:10:51;6.95;;;2.60;;
24567;SDS011;12731;52.182;8.716;2022-07-15T02:13:18;5.60;;;2.53;;
24567;SDS011;12731;52.182;8.716;2022-07-15T02:15:44;6.80;;;2.58;;
24567;SDS011;12731;52.182;8.716;2022-07-15T02:18:11;5.80;;;2.60;;
24567;SDS011;12731;52.182;8.716;2022-07-15T02:20:37;5.65;;;2.80;;
24567;SDS011;12731;52.182;8.716;2022-07-15T02:23:04;5.45;;;2.40;;
24567;SDS011;12731;52.182;8.716;2022-07-15T02:25:31;10.35;;;2.80;;
24567;SDS011;12731;52.182;8.716;2022-07-15T02:28:00;5.22;;;2.60;;
24567;SDS011;12731;52.182;8.716;2022-07-15T02:30:28;5.68;;;2.75;;
24567;SDS011;12731;52.182;8.716;2022-07-15T02:32:57;7.55;;;2.85;;
24567;SDS011;12731;52.182;8.716;2022-07-15T02:35:24;5.53;;;2.72;;
24567;SDS011;12731;52.182;8.716;2022-07-15T02:37:52;8.32;;;2.80;;
24567;SDS011;12731;52.182;8.716;2022-07-15T02:40:18;7.03;;;2.80;;
24567;SDS011;12731;52.182;8.716;2022-07-15T02:42:48;6.88;;;2.97;;
24567;SDS011;12731;52.182;8.716;2022-07-15T02:45:20;7.57;;;3.20;;
24567;SDS011;12731;52.182;8.716;2022-07-15T02:47:49;11.35;;;3.42;;
24567;SDS011;12731;52.182;8.716;2022-07-15T02:50:16;7.93;;;3.13;;
24567;SDS011;12731;52.182;8.716;2022-07-15T02:52:43;9.63;;;3.47;;
24567;SDS011;12731;52.182;8.716;2022-07-15T02:55:10;7.63;;;3.05;;
24567;SDS011;12731;52.182;8.716;2022-07-15T02:57:37;6.15;;;2.97;;
24567;SDS011;12731;52.182;8.716;2022-07-15T03:00:05;7.22;;;3.28;;
24567;SDS011;12731;52.182;8.716;2022-07-15T03:02:33;6.30;;;2.90;;
24567;SDS011;12731;52.182;8.716;2022-07-15T03:05:00;6.63;;;3.30;;
24567;SDS011;12731;52.182;8.716;2022-07-15T03:07:27;9.02;;;3.20;;
24567;SDS011;12731;52.182;8.716;2022-07-15T03:09:57;7.90;;;3.13;;
24567;SDS011;12731;52.182;8.716;2022-07-15T03:12:23;8.88;;;3.25;;
24567;SDS011;12731;52.182;8.716;2022-07-15T03:14:50;7.40;;;3.13;;
24567;SDS011;12731;52.182;8.716;2022-07-15T03:17:16;10.68;;;3.47;;
24567;SDS011;12731;52.182;8.716;2022-07-15T03:19:43;10.80;;;3.53;;
24567;SDS011;12731;52.182;8.716;2022-07-15T03:22:10;8.77;;;3.60;;
24567;SDS011;12731;52.182;8.716;2022-07-15T03:24:36;6.70;;;3.08;;
24567;SDS011;12731;52.182;8.716;2022-07-15T03:27:03;5.57;;;2.95;;
24567;SDS011;12731;52.182;8.716;2022-07-15T03:29:29;4.95;;;3.40;;
24567;SDS011;12731;52.182;8.716;2022-07-15T03:31:56;10.45;;;3.38;;
24567;SDS011;12731;52.182;8.716;2022-07-15T03:34:23;6.32;;;3.30;;
24567;SDS011;12731;52.182;8.716;2022-07-15T03:36:51;9.00;;;3.60;;
24567;SDS011;12731;52.182;8.716;2022-07-15T03:39:18;8.18;;;3.50;;
24567;SDS011;12731;52.182;8.716;2022-07-15T03:41:45;7.43;;;3.22;;
24567;SDS011;12731;52.182;8.716;2022-07-15T03:44:12;8.52;;;3.40;;
24567;SDS011;12731;52.182;8.716;2022-07-15T03:46:39;9.32;;;2.92;;
24567;SDS011;12731;52.182;8.716;2022-07-15T03:49:06;5.95;;;3.08;;
24567;SDS011;12731;52.182;8.716;2022-07-15T03:51:33;10.27;;;3.33;;
24567;SDS011;12731;52.182;8.716;2022-07-15T03:54:00;9.52;;;2.97;;
24567;SDS011;12731;52.182;8.716;2022-07-15T03:56:27;6.72;;;3.10;;
24567;SDS011;12731;52.182;8.716;2022-07-15T03:58:55;7.07;;;3.05;;
24567;SDS011;12731;52.182;8.716;2022-07-15T04:01:22;10.68;;;3.60;;
24567;SDS011;12731;52.182;8.716;2022-07-15T04:03:49;8.35;;;3.40;;
24567;SDS011;12731;52.182;8.716;2022-07-15T04:06:17;9.20;;;3.42;;
24567;SDS011;12731;52.182;8.716;2022-07-15T04:08:44;11.50;;;3.75;;
24567;SDS011;12731;52.182;8.716;2022-07-15T04:11:11;10.18;;;3.70;;
24567;SDS011;12731;52.182;8.716;2022-07-15T04:13:39;11.18;;;3.28;;
24567;SDS011;12731;52.182;8.716;2022-07-15T04:16:06;12.75;;;3.70;;
24567;SDS011;12731;52.182;8.716;2022-07-15T04:18:33;13.93;;;3.95;;
24567;SDS011;12731;52.182;8.716;2022-07-15T04:21:00;13.48;;;3.92;;
24567;SDS011;12731;52.182;8.716;2022-07-15T04:23:27;8.82;;;3.83;;
24567;SDS011;12731;52.182;8.716;2022-07-15T04:25:54;9.10;;;3.90;;
24567;SDS011;12731;52.182;8.716;2022-07-15T04:28:21;9.43;;;4.18;;
24567;SDS011;12731;52.182;8.716;2022-07-15T04:30:48;11.55;;;4.55;;
24567;SDS011;12731;52.182;8.716;2022-07-15T04:33:15;13.70;;;4.50;;
24567;SDS011;12731;52.182;8.716;2022-07-15T04:35:42;11.32;;;4.63;;
24567;SDS011;12731;52.182;8.716;2022-07-15T04:38:09;10.57;;;4.97;;
24567;SDS011;12731;52.182;8.716;2022-07-15T04:40:36;13.45;;;5.22;;
24567;SDS011;12731;52.182;8.716;2022-07-15T04:43:09;12.45;;;5.38;;
24567;SDS011;12731;52.182;8.716;2022-07-15T04:45:36;14.00;;;5.07;;
24567;SDS011;12731;52.182;8.716;2022-07-15T04:48:03;9.52;;;4.90;;
24567;SDS011;12731;52.182;8.716;2022-07-15T04:50:49;12.18;;;4.93;;
24567;SDS011;12731;52.182;8.716;2022-07-15T04:53:21;8.82;;;4.78;;
24567;SDS011;12731;52.182;8.716;2022-07-15T04:55:47;10.43;;;5.32;;
24567;SDS011;12731;52.182;8.716;2022-07-15T04:58:14;11.93;;;4.90;;
24567;SDS011;12731;52.182;8.716;2022-07-15T05:00:45;11.70;;;5.20;;
24567;SDS011;12731;52.182;8.716;2022-07-15T05:03:13;17.08;;;5.30;;
24567;SDS011;12731;52.182;8.716;2022-07-15T05:05:39;12.93;;;4.65;;
24567;SDS011;12731;52.182;8.716;2022-07-15T05:08:06;11.07;;;5.00;;
24567;SDS011;12731;52.182;8.716;2022-07-15T05:10:33;13.07;;;4.70;;
24567;SDS011;12731;52.182;8.716;2022-07-15T05:13:03;13.05;;;4.70;;
24567;SDS011;12731;52.182;8.716;2022-07-15T05:15:30;8.38;;;4.38;;
24567;SDS011;12731;52.182;8.716;2022-07-15T05:17:57;7.78;;;4.70;;
24567;SDS011;12731;52.182;8.716;2022-07-15T05:20:23;12.00;;;4.45;;
24567;SDS011;12731;52.182;8.716;2022-07-15T05:22:50;10.88;;;4.60;;
24567;SDS011;12731;52.182;8.716;2022-07-15T05:25:16;11.15;;;4.50;;
24567;SDS011;12731;52.182;8.716;2022-07-15T05:27:43;10.77;;;4.70;;
24567;SDS011;12731;52.182;8.716;2022-07-15T05:30:10;12.52;;;4.50;;
24567;SDS011;12731;52.182;8.716;2022-07-15T05:32:39;12.02;;;4.60;;
24567;SDS011;12731;52.182;8.716;2022-07-15T05:35:05;12.20;;;4.70;;
24567;SDS011;12731;52.182;8.716;2022-07-15T05:37:32;10.02;;;4.07;;
24567;SDS011;12731;52.182;8.716;2022-07-15T05:39:59;11.65;;;3.78;;
24567;SDS011;12731;52.182;8.716;2022-07-15T05:42:25;11.45;;;3.70;;
24567;SDS011;12731;52.182;8.716;2022-07-15T05:44:52;12.70;;;3.45;;
24567;SDS011;12731;52.182;8.716;2022-07-15T05:47:18;9.50;;;4.07;;
24567;SDS011;12731;52.182;8.716;2022-07-15T05:49:45;11.13;;;4.00;;
24567;SDS011;12731;52.182;8.716;2022-07-15T05:52:11;11.07;;;3.47;;
24567;SDS011;12731;52.182;8.716;2022-07-15T05:54:38;11.60;;;3.33;;
24567;SDS011;12731;52.182;8.716;2022-07-15T05:57:04;14.25;;;3.92;;
24567;SDS011;12731;52.182;8.716;2022-07-15T05:59:31;13.45;;;3.60;;
24567;SDS011;12731;52.182;8.716;2022-07-15T06:01:58;10.35;;;3.60;;
24567;SDS011;12731;52.182;8.716;2022-07-15T06:04:25;16.40;;;3.90;;
24567;SDS011;12731;52.182;8.716;2022-07-15T06:06:55;11.85;;;3.38;;
24567;SDS011;12731;52.182;8.716;2022-07-15T06:09:21;13.68;;;3.50;;
24567;SDS011;12731;52.182;8.716;2022-07-15T06:11:48;13.23;;;3.70;;
24567;SDS011;12731;52.182;8.716;2022-07-15T06:14:15;10.25;;;3.03;;
24567;SDS011;12731;52.182;8.716;2022-07-15T06:16:42;9.15;;;2.55;;
24567;SDS011;12731;52.182;8.716;2022-07-15T06:19:08;10.38;;;3.10;;
24567;SDS011;12731;52.182;8.716;2022-07-15T06:21:36;7.20;;;2.50;;
24567;SDS011;12731;52.182;8.716;2022-07-15T06:24:04;8.27;;;2.40;;
24567;SDS011;12731;52.182;8.716;2022-07-15T06:26:30;8.38;;;2.42;;
24567;SDS011;12731;52.182;8.716;2022-07-15T06:28:57;7.15;;;2.92;;
24567;SDS011;12731;52.182;8.716;2022-07-15T06:31:23;11.02;;;2.42;;
24567;SDS011;12731;52.182;8.716;2022-07-15T06:33:50;9.30;;;2.60;;
24567;SDS011;12731;52.182;8.716;2022-07-15T06:36:16;14.60;;;2.80;;
24567;SDS011;12731;52.182;8.716;2022-07-15T06:38:43;11.68;;;2.63;;
24567;SDS011;12731;52.182;8.716;2022-07-15T06:41:09;9.40;;;2.20;;
24567;SDS011;12731;52.182;8.716;2022-07-15T06:43:36;7.30;;;2.00;;
24567;SDS011;12731;52.182;8.716;2022-07-15T06:46:02;11.10;;;2.30;;
24567;SDS011;12731;52.182;8.716;2022-07-15T06:48:29;5.68;;;1.77;;
24567;SDS011;12731;52.182;8.716;2022-07-15T06:50:56;9.43;;;1.98;;
24567;SDS011;12731;52.182;8.716;2022-07-15T06:53:22;8.75;;;1.90;;
24567;SDS011;12731;52.182;8.716;2022-07-15T06:55:49;8.50;;;1.80;;
24567;SDS011;12731;52.182;8.716;2022-07-15T06:58:15;8.85;;;2.42;;
24567;SDS011;12731;52.182;8.716;2022-07-15T07:00:43;9.88;;;2.38;;
24567;SDS011;12731;52.182;8.716;2022-07-15T07:03:09;8.73;;;2.17;;
24567;SDS011;12731;52.182;8.716;2022-07-15T07:05:36;7.05;;;1.75;;
24567;SDS011;12731;52.182;8.716;2022-07-15T07:08:02;7.22;;;1.80;;
24567;SDS011;12731;52.182;8.716;2022-07-15T07:10:29;7.55;;;1.75;;
24567;SDS011;12731;52.182;8.716;2022-07-15T07:12:55;8.10;;;1.48;;
24567;SDS011;12731;52.182;8.716;2022-07-15T07:15:22;5.72;;;1.50;;
24567;SDS011;12731;52.182;8.716;2022-07-15T07:17:53;5.68;;;1.55;;
24567;SDS011;12731;52.182;8.716;2022-07-15T07:20:20;5.90;;;0.93;;
24567;SDS011;12731;52.182;8.716;2022-07-15T07:22:46;6.50;;;1.27;;
24567;SDS011;12731;52.182;8.716;2022-07-15T07:25:13;4.88;;;1.23;;
24567;SDS011;12731;52.182;8.716;2022-07-15T07:27:39;8.98;;;1.70;;
24567;SDS011;12731;52.182;8.716;2022-07-15T07:30:06;3.63;;;0.90;;
24567;SDS011;12731;52.182;8.716;2022-07-15T07:32:33;4.85;;;1.67;;
24567;SDS011;12731;52.182;8.716;2022-07-15T07:35:05;5.53;;;1.33;;
24567;SDS011;12731;52.182;8.716;2022-07-15T07:37:35;7.65;;;1.33;;
24567;SDS011;12731;52.182;8.716;2022-07-15T07:40:03;6.45;;;1.00;;
24567;SDS011;12731;52.182;8.716;2022-07-15T07:42:33;5.95;;;1.02;;
24567;SDS011;12731;52.182;8.716;2022-07-15T07:45:00;4.05;;;1.30;;
24567;SDS011;12731;52.182;8.716;2022-07-15T07:47:27;4.82;;;1.00;;
24567;SDS011;12731;52.182;8.716;2022-07-15T07:49:53;4.10;;;1.40;;
24567;SDS011;12731;52.182;8.716;2022-07-15T07:52:20;3.08;;;0.98;;
24567;SDS011;12731;52.182;8.716;2022-07-15T07:54:53;6.10;;;1.35;;
24567;SDS011;12731;52.182;8.716;2022-07-15T07:57:19;5.78;;;0.98;;
24567;SDS011;12731;52.182;8.716;2022-07-15T07:59:46;3.45;;;0.88;;
24567;SDS011;12731;52.182;8.716;2022-07-15T08:02:19;3.38;;;0.80;;
24567;SDS011;12731;52.182;8.716;2022-07-15T08:04:46;4.72;;;0.80;;
24567;SDS011;12731;52.182;8.716;2022-07-15T08:07:12;3.22;;;0.90;;
24567;SDS011;12731;52.182;8.716;2022-07-15T08:09:39;4.20;;;1.20;;
24567;SDS011;12731;52.182;8.716;2022-07-15T08:12:06;5.82;;;0.98;;
24567;SDS011;12731;52.182;8.716;2022-07-15T08:14:33;2.42;;;0.70;;
24567;SDS011;12731;52.182;8.716;2022-07-15T08:17:00;3.33;;;0.73;;
24567;SDS011;12731;52.182;8.716;2022-07-15T08:19:26;3.65;;;0.63;;
24567;SDS011;12731;52.182;8.716;2022-07-15T08:21:53;3.80;;;0.90;;
24567;SDS011;12731;52.182;8.716;2022-07-15T08:24:19;1.55;;;0.70;;
24567;SDS011;12731;52.182;8.716;2022-07-15T08:26:46;2.67;;;0.60;;
24567;SDS011;12731;52.182;8.716;2022-07-15T08:29:12;2.10;;;0.52;;
24567;SDS011;12731;52.182;8.716;2022-07-15T08:31:39;3.35;;;0.63;;
24567;SDS011;12731;52.182;8.716;2022-07-15T08:34:06;3.42;;;0.65;;
24567;SDS011;12731;52.182;8.716;2022-07-15T08:36:34;2.42;;;0.55;;
24567;SDS011;12731;52.182;8.716;2022-07-15T08:39:00;4.18;;;0.60;;
24567;SDS011;12731;52.182;8.716;2022-07-15T08:41:28;3.70;;;1.13;;
24567;SDS011;12731;52.182;8.716;2022-07-15T08:43:55;3.65;;;1.00;;
24567;SDS011;12731;52.182;8.716;2022-07-15T08:46:21;2.53;;;0.77;;
24567;SDS011;12731;52.182;8.716;2022-07-15T08:48:50;2.40;;;0.80;;
24567;SDS011;12731;52.182;8.716;2022-07-15T08:51:19;2.60;;;0.68;;
24567;SDS011;12731;52.182;8.716;2022-07-15T08:53:48;3.25;;;0.80;;
24567;SDS011;12731;52.182;8.716;2022-07-15T08:56:16;2.70;;;0.70;;
24567;SDS011;12731;52.182;8.716;2022-07-15T08:58:44;4.47;;;0.70;;
24567;SDS011;12731;52.182;8.716;2022-07-15T09:01:24;2.17;;;0.52;;
24567;SDS011;12731;52.182;8.716;2022-07-15T09:03:51;2.90;;;0.80;;
24567;SDS011;12731;52.182;8.716;2022-07-15T09:06:31;4.47;;;0.60;;
24567;SDS011;12731;52.182;8.716;2022-07-15T09:08:58;4.10;;;0.85;;
24567;SDS011;12731;52.182;8.716;2022-07-15T09:11:28;1.45;;;0.60;;
24567;SDS011;12731;52.182;8.716;2022-07-15T09:13:57;4.13;;;0.60;;
24567;SDS011;12731;52.182;8.716;2022-07-15T09:16:24;3.17;;;0.95;;
24567;SDS011;12731;52.182;8.716;2022-07-15T09:18:53;2.90;;;0.95;;
24567;SDS011;12731;52.182;8.716;2022-07-15T09:21:23;3.15;;;0.68;;
24567;SDS011;12731;52.182;8.716;2022-07-15T09:23:52;3.05;;;0.90;;
24567;SDS011;12731;52.182;8.716;2022-07-15T09:26:28;3.00;;;0.77;;
24567;SDS011;12731;52.182;8.716;2022-07-15T09:28:56;2.92;;;0.60;;
24567;SDS011;12731;52.182;8.716;2022-07-15T09:31:36;4.60;;;0.73;;
24567;SDS011;12731;52.182;8.716;2022-07-15T09:34:23;2.13;;;0.60;;
24567;SDS011;12731;52.182;8.716;2022-07-15T09:36:51;4.10;;;0.93;;
24567;SDS011;12731;52.182;8.716;2022-07-15T09:39:21;4.18;;;0.82;;
24567;SDS011;12731;52.182;8.716;2022-07-15T09:41:49;3.40;;;1.00;;
24567;SDS011;12731;52.182;8.716;2022-07-15T09:44:17;3.15;;;0.95;;
24567;SDS011;12731;52.182;8.716;2022-07-15T09:46:46;3.22;;;0.95;;
24567;SDS011;12731;52.182;8.716;2022-07-15T09:51:58;2.65;;;0.70;;
24567;SDS011;12731;52.182;8.716;2022-07-15T09:54:27;3.80;;;0.98;;
24567;SDS011;12731;52.182;8.716;2022-07-15T09:57:00;4.28;;;0.95;;
24567;SDS011;12731;52.182;8.716;2022-07-15T09:59:29;5.72;;;0.73;;
24567;SDS011;12731;52.182;8.716;2022-07-15T10:02:02;2.28;;;0.73;;
24567;SDS011;12731;52.182;8.716;2022-07-15T10:04:29;4.30;;;0.80;;
24567;SDS011;12731;52.182;8.716;2022-07-15T10:06:57;3.33;;;0.70;;
24567;SDS011;12731;52.182;8.716;2022-07-15T10:09:48;2.28;;;0.70;;
24567;SDS011;12731;52.182;8.716;2022-07-15T10:12:17;3.15;;;0.60;;
24567;SDS011;12731;52.182;8.716;2022-07-15T10:14:49;3.30;;;0.80;;
24567;SDS011;12731;52.182;8.716;2022-07-15T10:26:00;1.65;;;1.00;;
24567;SDS011;12731;52.182;8.716;2022-07-15T10:28:58;4.55;;;1.33;;
24567;SDS011;12731;52.182;8.716;2022-07-15T10:31:34;4.15;;;1.00;;
24567;SDS011;12731;52.182;8.716;2022-07-15T10:39:12;1.98;;;0.65;;
24567;SDS011;12731;52.182;8.716;2022-07-15T10:41:47;2.97;;;0.70;;
24567;SDS011;12731;52.182;8.716;2022-07-15T10:44:14;2.53;;;0.77;;
24567;SDS011;12731;52.182;8.716;2022-07-15T10:46:41;1.77;;;0.60;;
24567;SDS011;12731;52.182;8.716;2022-07-15T10:54:01;5.30;;;1.17;;
24567;SDS011;12731;52.182;8.716;2022-07-15T10:56:29;2.72;;;0.70;;
24567;SDS011;12731;52.182;8.716;2022-07-15T10:59:10;2.10;;;0.82;;
24567;SDS011;12731;52.182;8.716;2022-07-15T11:01:48;2.28;;;0.68;;
24567;SDS011;12731;52.182;8.716;2022-07-15T11:04:22;1.52;;;0.70;;
24567;SDS011;12731;52.182;8.716;2022-07-15T11:12:23;1.83;;;0.60;;
24567;SDS011;12731;52.182;8.716;2022-07-15T11:15:13;3.85;;;0.77;;
24567;SDS011;12731;52.182;8.716;2022-07-15T11:17:44;2.90;;;0.60;;
24567;SDS011;12731;52.182;8.716;2022-07-15T11:22:41;1.98;;;0.50;;
24567;SDS011;12731;52.182;8.716;2022-07-15T11:25:16;1.67;;;0.50;;
24567;SDS011;12731;52.182;8.716;2022-07-15T11:27:57;2.60;;;0.73;;
24567;SDS011;12731;52.182;8.716;2022-07-15T11:30:41;1.40;;;0.57;;
24567;SDS011;12731;52.182;8.716;2022-07-15T11:33:13;5.28;;;0.70;;
24567;SDS011;12731;52.182;8.716;2022-07-15T11:35:42;4.70;;;0.82;;
24567;SDS011;12731;52.182;8.716;2022-07-15T11:38:12;1.85;;;0.50;;
24567;SDS011;12731;52.182;8.716;2022-07-15T11:40:43;2.03;;;0.80;;
24567;SDS011;12731;52.182;8.716;2022-07-15T11:43:29;3.60;;;1.00;;
24567;SDS011;12731;52.182;8.716;2022-07-15T11:46:14;3.88;;;1.48;;
24567;SDS011;12731;52.182;8.716;2022-07-15T11:48:42;2.05;;;0.50;;
24567;SDS011;12731;52.182;8.716;2022-07-15T11:51:09;2.70;;;0.60;;
24567;SDS011;12731;52.182;8.716;2022-07-15T11:53:41;1.33;;;0.50;;
24567;SDS011;12731;52.182;8.716;2022-07-15T11:56:10;1.42;;;0.63;;
24567;SDS011;12731;52.182;8.716;2022-07-15T11:58:39;3.38;;;0.63;;
24567;SDS011;12731;52.182;8.716;2022-07-15T12:01:10;3.03;;;0.63;;
24567;SDS011;12731;52.182;8.716;2022-07-15T12:03:46;3.75;;;0.73;;
24567;SDS011;12731;52.182;8.716;2022-07-15T12:08:50;2.80;;;0.90;;
24567;SDS011;12731;52.182;8.716;2022-07-15T12:11:25;1.88;;;0.50;;
24567;SDS011;12731;52.182;8.716;2022-07-15T12:13:55;1.95;;;0.50;;
24567;SDS011;12731;52.182;8.716;2022-07-15T12:16:46;1.45;;;0.60;;
24567;SDS011;12731;52.182;8.716;2022-07-15T12:21:49;2.30;;;0.50;;
24567;SDS011;12731;52.182;8.716;2022-07-15T12:31:56;3.20;;;0.60;;
24567;SDS011;12731;52.182;8.716;2022-07-15T12:37:21;2.58;;;0.73;;
24567;SDS011;12731;52.182;8.716;2022-07-15T12:42:31;1.30;;;0.53;;
24567;SDS011;12731;52.182;8.716;2022-07-15T12:45:04;1.23;;;0.50;;
24567;SDS011;12731;52.182;8.716;2022-07-15T12:48:01;2.45;;;0.65;;
24567;SDS011;12731;52.182;8.716;2022-07-15T12:53:22;2.38;;;0.63;;
24567;SDS011;12731;52.182;8.716;2022-07-15T12:55:51;1.90;;;0.70;;
24567;SDS011;12731;52.182;8.716;2022-07-15T12:58:26;1.35;;;0.50;;
24567;SDS011;12731;52.182;8.716;2022-07-15T13:01:04;2.65;;;0.50;;
24567;SDS011;12731;52.182;8.716;2022-07-15T13:03:35;4.00;;;0.90;;
24567;SDS011;12731;52.182;8.716;2022-07-15T13:06:02;1.75;;;0.50;;
24567;SDS011;12731;52.182;8.716;2022-07-15T13:08:30;1.02;;;0.47;;
24567;SDS011;12731;52.182;8.716;2022-07-15T13:10:59;3.45;;;0.65;;
24567;SDS011;12731;52.182;8.716;2022-07-15T13:13:28;2.90;;;0.57;;
24567;SDS011;12731;52.182;8.716;2022-07-15T13:15:55;4.28;;;0.50;;
24567;SDS011;12731;52.182;8.716;2022-07-15T13:18:22;5.13;;;0.57;;
24567;SDS011;12731;52.182;8.716;2022-07-15T13:20:51;2.08;;;0.50;;
24567;SDS011;12731;52.182;8.716;2022-07-15T13:23:18;1.73;;;0.70;;
24567;SDS011;12731;52.182;8.716;2022-07-15T13:25:45;1.33;;;0.50;;
24567;SDS011;12731;52.182;8.716;2022-07-15T13:28:11;1.95;;;0.50;;
24567;SDS011;12731;52.182;8.716;2022-07-15T13:30:38;3.67;;;0.60;;
24567;SDS011;12731;52.182;8.716;2022-07-15T13:33:05;1.10;;;0.85;;
24567;SDS011;12731;52.182;8.716;2022-07-15T13:35:32;1.48;;;0.55;;
24567;SDS011;12731;52.182;8.716;2022-07-15T13:37:59;4.45;;;0.50;;
24567;SDS011;12731;52.182;8.716;2022-07-15T13:40:26;2.05;;;0.50;;
24567;SDS011;12731;52.182;8.716;2022-07-15T13:42:52;1.98;;;0.50;;
24567;SDS011;12731;52.182;8.716;2022-07-15T13:45:19;3.55;;;0.50;;
24567;SDS011;12731;52.182;8.716;2022-07-15T13:47:45;2.05;;;0.47;;
24567;SDS011;12731;52.182;8.716;2022-07-15T13:50:12;5.15;;;0.68;;
24567;SDS011;12731;52.182;8.716;2022-07-15T13:52:57;3.22;;;0.70;;
24567;SDS011;12731;52.182;8.716;2022-07-15T13:55:25;3.50;;;0.80;;
24567;SDS011;12731;52.182;8.716;2022-07-15T13:57:51;2.47;;;0.70;;
24567;SDS011;12731;52.182;8.716;2022-07-15T14:00:19;3.95;;;0.82;;
24567;SDS011;12731;52.182;8.716;2022-07-15T14:02:48;4.53;;;0.73;;
24567;SDS011;12731;52.182;8.716;2022-07-15T14:05:16;1.83;;;0.50;;
24567;SDS011;12731;52.182;8.716;2022-07-15T14:07:42;2.47;;;0.60;;
24567;SDS011;12731;52.182;8.716;2022-07-15T14:10:09;3.72;;;0.70;;
24567;SDS011;12731;52.182;8.716;2022-07-15T14:12:35;2.55;;;0.70;;
24567;SDS011;12731;52.182;8.716;2022-07-15T14:15:02;2.42;;;0.65;;
24567;SDS011;12731;52.182;8.716;2022-07-15T14:17:29;1.88;;;0.70;;
24567;SDS011;12731;52.182;8.716;2022-07-15T14:19:56;3.00;;;0.60;;
24567;SDS011;12731;52.182;8.716;2022-07-15T14:22:23;2.53;;;0.63;;
24567;SDS011;12731;52.182;8.716;2022-07-15T14:24:52;1.52;;;0.50;;
24567;SDS011;12731;52.182;8.716;2022-07-15T14:27:19;1.23;;;0.50;;
24567;SDS011;12731;52.182;8.716;2022-07-15T14:29:46;3.10;;;0.60;;
24567;SDS011;12731;52.182;8.716;2022-07-15T14:32:13;1.63;;;0.60;;
24567;SDS011;12731;52.182;8.716;2022-07-15T14:34:39;1.85;;;0.30;;
24567;SDS011;12731;52.182;8.716;2022-07-15T14:37:06;3.00;;;0.70;;
24567;SDS011;12731;52.182;8.716;2022-07-15T14:39:52;2.88;;;0.60;;
24567;SDS011;12731;52.182;8.716;2022-07-15T14:42:18;3.03;;;0.52;;
24567;SDS011;12731;52.182;8.716;2022-07-15T14:44:45;2.22;;;0.50;;
24567;SDS011;12731;52.182;8.716;2022-07-15T14:47:11;3.90;;;0.63;;
24567;SDS011;12731;52.182;8.716;2022-07-15T14:49:38;2.65;;;0.55;;
24567;SDS011;12731;52.182;8.716;2022-07-15T14:52:05;1.10;;;0.45;;
24567;SDS011;12731;52.182;8.716;2022-07-15T14:54:31;2.80;;;0.60;;
24567;SDS011;12731;52.182;8.716;2022-07-15T14:56:58;1.20;;;0.50;;
24567;SDS011;12731;52.182;8.716;2022-07-15T14:59:24;4.68;;;0.80;;
24567;SDS011;12731;52.182;8.716;2022-07-15T15:01:50;2.78;;;0.55;;
24567;SDS011;12731;52.182;8.716;2022-07-15T15:04:19;2.60;;;0.57;;
24567;SDS011;12731;52.182;8.716;2022-07-15T15:06:46;1.42;;;0.50;;
24567;SDS011;12731;52.182;8.716;2022-07-15T15:09:13;2.78;;;0.60;;
24567;SDS011;12731;52.182;8.716;2022-07-15T15:11:39;1.25;;;0.40;;
24567;SDS011;12731;52.182;8.716;2022-07-15T15:14:06;1.77;;;0.50;;
24567;SDS011;12731;52.182;8.716;2022-07-15T15:16:32;3.47;;;0.63;;
24567;SDS011;12731;52.182;8.716;2022-07-15T15:19:18;0.95;;;0.40;;
24567;SDS011;12731;52.182;8.716;2022-07-15T15:21:45;2.80;;;0.70;;
24567;SDS011;12731;52.182;8.716;2022-07-15T15:24:12;2.97;;;0.60;;
24567;SDS011;12731;52.182;8.716;2022-07-15T15:26:42;1.77;;;0.70;;
24567;SDS011;12731;52.182;8.716;2022-07-15T15:29:08;1.58;;;0.50;;
24567;SDS011;12731;52.182;8.716;2022-07-15T15:31:35;2.42;;;0.63;;
24567;SDS011;12731;52.182;8.716;2022-07-15T15:34:02;1.77;;;0.47;;
24567;SDS011;12731;52.182;8.716;2022-07-15T15:36:28;2.75;;;0.60;;
24567;SDS011;12731;52.182;8.716;2022-07-15T15:39:05;0.93;;;0.43;;
24567;SDS011;12731;52.182;8.716;2022-07-15T15:41:32;2.80;;;0.47;;
24567;SDS011;12731;52.182;8.716;2022-07-15T15:43:58;1.63;;;0.60;;
24567;SDS011;12731;52.182;8.716;2022-07-15T15:46:25;1.40;;;0.50;;